Time;durP1;ratioP1;P1;durP2;ratioP2;P2;SDS_P1;SDS_P2;PMS_P1;PMS_P2;Temp;Humidity;BMP_temperature;BMP_pressure;BME280_temperature;BME280_humidity;BME280_pressure;Samples;Min_cycle;Max_cycle;Signal;HPM_P1;HPM_P2
2024/02/10 00:01:24;;;;;;;2.30;1.80;;;10.80;68.30;;;;;;4651996;30;20328;-88
2024/02/10 00:03:50;;;;;;;2.67;1.45;;;10.80;68.30;;;;;;4645480;30;20066;-85
2024/02/10 00:06:15;;;;;;;1.73;1.58;;;10.80;68.40;;;;;;4638274;30;20070;-86
2024/02/10 00:08:43;;;;;;;1.90;1.50;;;10.70;68.30;;;;;;4638866;30;20054;-86
2024/02/10 00:11:10;;;;;;;2.40;1.58;;;10.70;68.30;;;;;;4639245;30;20042;-86
2024/02/10 00:13:39;;;;;;;2.45;1.60;;;10.60;68.20;;;;;;4637936;30;20053;-85
2024/02/10 00:16:05;;;;;;;2.33;1.80;;;10.60;68.30;;;;;;4632141;30;20047;-87
2024/02/10 00:18:31;;;;;;;3.17;1.77;;;10.60;68.30;;;;;;4637260;30;20149;-85
2024/02/10 00:20:57;;;;;;;2.28;1.50;;;10.50;68.20;;;;;;4622086;30;20121;-86
2024/02/10 00:23:27;;;;;;;5.38;1.70;;;10.50;68.20;;;;;;4634234;30;20038;-88
2024/02/10 00:25:53;;;;;;;2.05;1.40;;;10.40;68.10;;;;;;4638160;30;20120;-88
2024/02/10 00:28:19;;;;;;;2.55;1.60;;;10.40;68.20;;;;;;4641134;30;20035;-87
2024/02/10 00:30:45;;;;;;;3.17;1.17;;;10.40;68.20;;;;;;4641042;30;20043;-86
2024/02/10 00:33:11;;;;;;;1.65;1.20;;;10.40;68.20;;;;;;4639448;30;20486;-87
2024/02/10 00:35:37;;;;;;;2.33;1.20;;;10.40;68.30;;;;;;4625598;30;20100;-85
2024/02/10 00:38:03;;;;;;;2.28;1.20;;;10.40;68.30;;;;;;4645420;30;20050;-86
2024/02/10 00:40:32;;;;;;;2.00;1.30;;;10.30;68.10;;;;;;4646283;30;20046;-87
2024/02/10 00:43:00;;;;;;;2.42;1.40;;;10.30;68.10;;;;;;4642873;30;20471;-88
2024/02/10 00:45:26;;;;;;;2.03;1.38;;;10.30;68.10;;;;;;4636163;30;20087;-83
2024/02/10 00:47:52;;;;;;;1.83;1.23;;;10.30;68.10;;;;;;4630051;30;20419;-83
2024/02/10 00:50:18;;;;;;;2.47;1.30;;;10.30;68.10;;;;;;4644301;30;20351;-84
2024/02/10 00:52:49;;;;;;;1.48;1.30;;;10.30;68.20;;;;;;4639823;30;20038;-82
2024/02/10 00:55:22;;;;;;;2.33;1.27;;;10.20;68.00;;;;;;4624191;30;20102;-84
2024/02/10 00:57:49;;;;;;;;;;;10.30;68.20;;;;;;4627389;30;20353;-86
2024/02/10 01:00:16;;;;;;;1.48;1.00;;;10.20;68.00;;;;;;4640306;30;19924;-86
2024/02/10 01:02:45;;;;;;;2.20;1.20;;;10.30;68.00;;;;;;4626323;30;20295;-86
2024/02/10 01:05:12;;;;;;;2.58;1.33;;;10.30;68.00;;;;;;4640208;30;20113;-86
2024/02/10 01:07:39;;;;;;;1.65;1.30;;;10.20;67.90;;;;;;4644517;30;20035;-87
2024/02/10 01:10:06;;;;;;;1.40;1.00;;;10.30;68.00;;;;;;4641467;30;20501;-88
2024/02/10 01:12:33;;;;;;;2.55;1.30;;;10.30;68.10;;;;;;4625740;30;20051;-87
2024/02/10 01:14:59;;;;;;;1.63;1.02;;;10.20;67.90;;;;;;4640475;30;20187;-84
2024/02/10 01:17:26;;;;;;;1.75;0.98;;;10.20;67.90;;;;;;4640813;30;20113;-87
2024/02/10 01:19:54;;;;;;;1.60;1.30;;;10.30;68.10;;;;;;4641547;30;20489;-86
2024/02/10 01:22:25;;;;;;;2.13;1.40;;;10.30;68.10;;;;;;4646194;30;20053;-83
2024/02/10 01:24:55;;;;;;;3.10;1.48;;;10.20;67.90;;;;;;4615823;30;20061;-86
2024/02/10 01:27:25;;;;;;;3.28;1.55;;;10.20;67.90;;;;;;4620896;30;20540;-86
2024/02/10 01:29:52;;;;;;;2.33;1.30;;;10.20;67.90;;;;;;4636132;30;20512;-87
2024/02/10 01:32:20;;;;;;;1.30;1.00;;;10.20;67.90;;;;;;4625264;30;20074;-86
2024/02/10 01:34:48;;;;;;;1.58;1.30;;;10.20;67.90;;;;;;4625111;30;20034;-88
2024/02/10 01:37:17;;;;;;;1.27;1.00;;;10.20;67.90;;;;;;4640953;30;20049;-80
2024/02/10 01:39:45;;;;;;;1.25;1.10;;;10.30;68.10;;;;;;4640714;30;20035;-78
2024/02/10 01:42:20;;;;;;;1.73;1.10;;;10.30;68.10;;;;;;4623814;30;20031;-84
2024/02/10 01:44:46;;;;;;;1.25;1.13;;;10.20;67.90;;;;;;4636091;30;20046;-85
2024/02/10 01:47:15;;;;;;;1.55;1.20;;;10.20;67.80;;;;;;4622177;30;20046;-84
2024/02/10 01:49:41;;;;;;;1.30;1.20;;;10.20;67.80;;;;;;4638419;30;20473;-85
2024/02/10 01:52:08;;;;;;;2.70;1.10;;;10.30;68.00;;;;;;4639635;30;20042;-84
2024/02/10 01:54:39;;;;;;;1.80;1.48;;;10.30;68.00;;;;;;4638841;30;20054;-84
2024/02/10 01:57:06;;;;;;;1.33;0.98;;;10.30;68.00;;;;;;4638054;30;20210;-85
2024/02/10 01:59:35;;;;;;;1.45;1.02;;;10.30;68.00;;;;;;4639435;30;20066;-84
2024/02/10 02:02:03;;;;;;;1.70;1.10;;;10.30;67.90;;;;;;4619126;31;20047;-85
2024/02/10 02:04:36;;;;;;;2.03;1.33;;;10.30;67.90;;;;;;4621628;30;20077;-85
2024/02/10 02:07:10;;;;;;;1.90;0.90;;;10.30;67.90;;;;;;4636043;30;20047;-85
2024/02/10 02:09:37;;;;;;;2.33;0.90;;;10.30;67.90;;;;;;4639187;30;20047;-85
2024/02/10 02:12:07;;;;;;;2.17;1.20;;;10.30;67.80;;;;;;4622103;30;20423;-85
2024/02/10 02:14:36;;;;;;;1.13;0.90;;;10.30;67.80;;;;;;4636493;30;20055;-87
2024/02/10 02:17:06;;;;;;;1.55;1.00;;;10.30;67.80;;;;;;4630120;30;20185;-85
2024/02/10 02:19:33;;;;;;;1.83;0.82;;;10.30;67.80;;;;;;4623938;30;20805;-83
2024/02/10 02:22:00;;;;;;;2.75;1.05;;;10.30;67.80;;;;;;4638669;30;20039;-84
2024/02/10 02:24:28;;;;;;;1.42;0.88;;;10.30;67.80;;;;;;4636808;30;20057;-83
2024/02/10 02:26:57;;;;;;;0.80;0.73;;;10.30;67.70;;;;;;4634718;30;20047;-84
2024/02/10 02:29:24;;;;;;;0.93;0.85;;;10.30;67.70;;;;;;4636956;30;20038;-83
2024/02/10 02:31:53;;;;;;;2.63;0.93;;;10.30;67.70;;;;;;4620910;30;20107;-84
2024/02/10 02:34:22;;;;;;;1.08;0.90;;;10.40;67.90;;;;;;4639538;30;20501;-84
2024/02/10 02:36:52;;;;;;;1.55;0.88;;;10.30;67.70;;;;;;4641032;30;20058;-84
2024/02/10 02:39:22;;;;;;;1.45;0.93;;;10.30;67.60;;;;;;4619651;30;20051;-84
2024/02/10 02:41:48;;;;;;;0.95;0.85;;;10.30;67.60;;;;;;4637743;30;21381;-85
2024/02/10 02:44:14;;;;;;;3.30;1.10;;;10.40;67.80;;;;;;4637127;30;20524;-84
2024/02/10 02:46:41;;;;;;;1.98;1.10;;;10.40;67.80;;;;;;4622991;30;20111;-84
2024/02/10 02:49:15;;;;;;;1.25;1.00;;;10.40;67.80;;;;;;4641349;30;20062;-85
2024/02/10 02:51:42;;;;;;;1.25;0.90;;;10.40;67.80;;;;;;4629762;30;20046;-86
2024/02/10 02:54:08;;;;;;;0.93;0.80;;;10.40;67.80;;;;;;4643179;30;20051;-86
2024/02/10 02:56:34;;;;;;;1.38;0.93;;;10.40;67.70;;;;;;4639807;30;20031;-87
2024/02/10 02:59:00;;;;;;;1.00;0.80;;;10.40;67.70;;;;;;4641693;30;20106;-87
2024/02/10 03:01:26;;;;;;;1.08;0.80;;;10.40;67.70;;;;;;4643471;30;20489;-86
2024/02/10 03:03:52;;;;;;;2.67;1.10;;;10.40;67.70;;;;;;4640923;30;20047;-86
2024/02/10 03:06:19;;;;;;;1.17;0.95;;;10.40;67.70;;;;;;4635112;30;20090;-86
2024/02/10 03:08:47;;;;;;;1.13;0.90;;;10.40;67.70;;;;;;4642552;30;20038;-86
2024/02/10 03:11:18;;;;;;;1.13;0.70;;;10.40;67.70;;;;;;4631093;30;20047;-84
2024/02/10 03:13:47;;;;;;;1.65;0.95;;;10.40;67.80;;;;;;4627163;30;20050;-86
2024/02/10 03:16:15;;;;;;;3.15;0.90;;;10.30;67.60;;;;;;4645551;30;20091;-79
2024/02/10 03:18:47;;;;;;;1.05;0.80;;;10.40;67.90;;;;;;4640117;30;20043;-85
2024/02/10 03:21:15;;;;;;;1.43;0.87;;;10.40;68.00;;;;;;4622605;30;20035;-84
2024/02/10 03:23:42;;;;;;;1.27;0.80;;;10.50;68.60;;;;;;4641608;30;20839;-83
2024/02/10 03:26:08;;;;;;;1.38;0.60;;;10.60;69.10;;;;;;4623062;30;20047;-83
2024/02/10 03:28:38;;;;;;;0.98;0.60;;;10.70;69.40;;;;;;4638039;30;20050;-85
2024/02/10 03:31:05;;;;;;;2.60;1.00;;;10.80;69.60;;;;;;4626853;30;20074;-84
2024/02/10 03:33:32;;;;;;;1.17;1.08;;;10.90;69.80;;;;;;4624374;30;20119;-81
2024/02/10 03:36:03;;;;;;;1.02;0.68;;;11.10;70.10;;;;;;4641251;30;20265;-81
2024/02/10 03:38:29;;;;;;;0.73;0.73;;;11.20;70.20;;;;;;4630922;30;20077;-83
2024/02/10 03:40:55;;;;;;;1.52;0.60;;;11.20;70.10;;;;;;4641698;30;20204;-84
2024/02/10 03:43:27;;;;;;;1.15;0.52;;;11.40;70.30;;;;;;4622389;30;20035;-84
2024/02/10 03:45:53;;;;;;;2.45;0.60;;;11.50;70.40;;;;;;4622941;30;20133;-83
2024/02/10 03:48:19;;;;;;;1.70;0.80;;;11.60;70.40;;;;;;4625678;30;20113;-83
2024/02/10 03:50:45;;;;;;;1.10;0.70;;;11.60;70.30;;;;;;4626115;30;20046;-84
2024/02/10 03:53:11;;;;;;;0.80;0.65;;;11.70;70.50;;;;;;4630182;30;20045;-84
2024/02/10 03:55:38;;;;;;;0.98;0.65;;;11.70;70.40;;;;;;4625296;30;20031;-83
2024/02/10 03:58:09;;;;;;;1.77;0.50;;;11.80;70.50;;;;;;4641508;30;20042;-84
2024/02/10 04:00:38;;;;;;;2.85;0.77;;;11.80;70.50;;;;;;4641868;30;20133;-84
2024/02/10 04:03:05;;;;;;;2.53;0.50;;;11.90;70.50;;;;;;4647315;30;20042;-83
2024/02/10 04:05:34;;;;;;;0.32;0.32;;;12.00;70.60;;;;;;4633417;30;20154;-84
2024/02/10 04:08:03;;;;;;;0.80;0.68;;;12.00;70.50;;;;;;4646685;30;20042;-84
2024/02/10 04:10:29;;;;;;;1.35;0.50;;;12.00;70.50;;;;;;4630000;30;20054;-84
2024/02/10 04:12:55;;;;;;;0.57;0.57;;;12.10;70.70;;;;;;4623824;30;20049;-85
2024/02/10 04:15:22;;;;;;;2.45;0.80;;;12.10;70.60;;;;;;4622777;30;20134;-87
2024/02/10 04:17:53;;;;;;;0.88;0.55;;;12.10;70.50;;;;;;4642331;30;20047;-85
2024/02/10 04:20:23;;;;;;;1.77;0.63;;;12.10;70.50;;;;;;4645017;30;20053;-86
2024/02/10 04:22:52;;;;;;;0.90;0.60;;;12.20;70.60;;;;;;4637772;30;20507;-86
2024/02/10 04:25:18;;;;;;;1.15;0.52;;;12.20;70.60;;;;;;4641265;30;20066;-86
2024/02/10 04:27:44;;;;;;;1.08;0.50;;;12.20;70.50;;;;;;4635678;30;20512;-85
2024/02/10 04:30:11;;;;;;;1.95;1.10;;;12.20;70.40;;;;;;4643383;30;20053;-84
2024/02/10 04:32:47;;;;;;;2.25;0.63;;;12.20;70.40;;;;;;4628943;30;20051;-84
2024/02/10 04:35:15;;;;;;;1.63;0.70;;;12.30;70.50;;;;;;4648897;30;20061;-85
2024/02/10 04:37:55;;;;;;;1.70;0.70;;;12.30;70.40;;;;;;4652784;30;20039;-86
2024/02/10 04:40:23;;;;;;;0.85;0.60;;;12.30;70.40;;;;;;4628733;30;20039;-87
2024/02/10 04:42:53;;;;;;;1.42;0.65;;;12.30;70.30;;;;;;4644159;30;20186;-87
2024/02/10 04:45:27;;;;;;;1.60;0.80;;;12.30;70.30;;;;;;4644810;30;20046;-88
2024/02/10 04:47:53;;;;;;;1.02;1.00;;;12.30;70.30;;;;;;4632069;30;20043;-85
2024/02/10 04:50:23;;;;;;;1.70;0.70;;;12.30;70.20;;;;;;4628664;30;20076;-86
2024/02/10 04:52:49;;;;;;;1.73;0.90;;;12.30;70.20;;;;;;4644525;30;20043;-86
2024/02/10 04:55:21;;;;;;;1.20;0.60;;;12.30;70.10;;;;;;4642791;30;20055;-85
2024/02/10 04:57:54;;;;;;;1.13;0.57;;;12.30;70.10;;;;;;4642668;30;20035;-86
2024/02/10 05:00:21;;;;;;;2.80;0.60;;;12.30;70.00;;;;;;4636787;30;20057;-84
2024/02/10 05:02:50;;;;;;;2.10;0.77;;;12.30;70.00;;;;;;4643641;30;20619;-85
2024/02/10 05:05:18;;;;;;;2.63;0.70;;;12.40;70.10;;;;;;4643145;30;20051;-85
2024/02/10 05:07:46;;;;;;;1.25;0.57;;;12.30;69.90;;;;;;4644123;30;20385;-84
2024/02/10 05:10:14;;;;;;;0.82;0.50;;;12.30;69.90;;;;;;4629221;30;20171;-85
2024/02/10 05:12:44;;;;;;;0.70;0.50;;;12.40;70.00;;;;;;4628465;30;20046;-86
2024/02/10 05:15:22;;;;;;;1.13;0.52;;;12.40;70.00;;;;;;4639847;30;20460;-86
2024/02/10 05:17:53;;;;;;;1.63;1.05;;;12.40;70.00;;;;;;4627314;30;20284;-86
2024/02/10 05:20:24;;;;;;;0.90;0.55;;;12.40;70.00;;;;;;4641221;30;20043;-86
2024/02/10 05:22:54;;;;;;;1.40;0.68;;;12.40;70.00;;;;;;4643156;30;20053;-86
2024/02/10 05:25:21;;;;;;;0.68;0.43;;;12.40;70.00;;;;;;4628147;30;20473;-85
2024/02/10 05:27:51;;;;;;;1.08;0.90;;;12.50;70.10;;;;;;4628043;30;20500;-86
2024/02/10 05:30:23;;;;;;;1.13;0.70;;;12.50;70.10;;;;;;4628036;30;20138;-86
2024/02/10 05:32:51;;;;;;;1.40;1.15;;;12.50;70.10;;;;;;4638932;30;20050;-85
2024/02/10 05:35:18;;;;;;;1.95;0.65;;;12.50;70.00;;;;;;4663385;30;20054;-84
2024/02/10 05:37:59;;;;;;;1.65;0.63;;;12.50;70.00;;;;;;4658700;30;20087;-84
2024/02/10 05:40:27;;;;;;;2.72;0.73;;;12.50;70.00;;;;;;4664895;30;20082;-86
2024/02/10 05:42:58;;;;;;;1.88;0.60;;;12.50;69.90;;;;;;4664537;30;20115;-84
2024/02/10 05:45:25;;;;;;;1.73;0.75;;;12.50;69.90;;;;;;4662188;30;20042;-85
2024/02/10 05:47:52;;;;;;;1.25;0.80;;;12.50;69.90;;;;;;4645260;30;20023;-85
2024/02/10 05:50:19;;;;;;;1.10;0.70;;;12.60;70.00;;;;;;4637087;30;20109;-85
2024/02/10 05:52:46;;;;;;;3.55;0.77;;;12.60;70.00;;;;;;4637985;30;20592;-84
2024/02/10 05:55:13;;;;;;;2.53;0.60;;;12.60;70.00;;;;;;4639647;30;20077;-83
2024/02/10 05:57:39;;;;;;;1.60;0.55;;;12.60;70.00;;;;;;4640435;30;20047;-84
2024/02/10 06:00:12;;;;;;;3.03;1.48;;;12.60;70.00;;;;;;4638992;30;20051;-85
2024/02/10 06:02:41;;;;;;;1.15;0.63;;;12.60;70.00;;;;;;4634752;30;20299;-84
2024/02/10 06:05:15;;;;;;;1.77;0.60;;;12.70;70.10;;;;;;4649803;30;20166;-85
2024/02/10 06:07:42;;;;;;;1.83;0.85;;;12.60;70.00;;;;;;4658585;30;20066;-84
2024/02/10 06:10:12;;;;;;;2.47;1.10;;;12.70;70.10;;;;;;4658447;30;20094;-83
2024/02/10 06:12:39;;;;;;;3.22;0.95;;;12.70;70.10;;;;;;4626557;30;20101;-84
2024/02/10 06:15:09;;;;;;;2.08;0.82;;;12.60;69.90;;;;;;4646912;30;20078;-83
2024/02/10 06:17:38;;;;;;;2.03;0.90;;;12.70;70.10;;;;;;4633283;30;20045;-83
2024/02/10 06:20:06;;;;;;;1.90;0.70;;;12.70;70.10;;;;;;4644687;30;20039;-82
2024/02/10 06:22:33;;;;;;;2.25;0.60;;;12.70;70.10;;;;;;4636559;30;20065;-84
2024/02/10 06:25:00;;;;;;;2.22;0.70;;;12.60;69.90;;;;;;4629257;30;20166;-84
2024/02/10 06:27:27;;;;;;;2.40;0.80;;;12.60;69.90;;;;;;4639422;30;20034;-83
2024/02/10 06:29:58;;;;;;;1.65;1.02;;;12.60;69.90;;;;;;4624421;30;20046;-84
2024/02/10 06:32:24;;;;;;;0.70;0.45;;;12.60;69.90;;;;;;4627224;30;20142;-84
2024/02/10 06:34:51;;;;;;;1.60;0.80;;;12.60;69.90;;;;;;4640880;30;20189;-83
2024/02/10 06:37:20;;;;;;;2.80;0.70;;;12.60;69.90;;;;;;4644264;30;20037;-82
2024/02/10 06:39:46;;;;;;;1.58;0.70;;;12.60;70.00;;;;;;4637896;30;20039;-84
2024/02/10 06:42:13;;;;;;;2.08;0.68;;;12.60;70.00;;;;;;4642796;30;20027;-85
2024/02/10 06:44:39;;;;;;;1.58;0.93;;;12.60;70.00;;;;;;4618692;30;20093;-84
2024/02/10 06:47:09;;;;;;;3.20;1.00;;;12.60;70.00;;;;;;4636797;30;20043;-87
2024/02/10 06:49:36;;;;;;;4.43;0.82;;;12.60;70.00;;;;;;4621873;30;20083;-82
2024/02/10 06:52:02;;;;;;;3.55;1.00;;;12.50;69.80;;;;;;4638926;30;20046;-85
2024/02/10 06:54:28;;;;;;;2.25;0.63;;;12.60;70.00;;;;;;4638755;30;20046;-85
2024/02/10 06:56:57;;;;;;;3.53;0.98;;;12.50;69.80;;;;;;4635841;30;20484;-89
2024/02/10 06:59:25;;;;;;;5.13;1.30;;;12.50;69.80;;;;;;4636705;30;20137;-86
2024/02/10 07:01:54;;;;;;;12.40;1.70;;;12.50;69.80;;;;;;4625469;30;20298;-82
2024/02/10 07:04:23;;;;;;;1.40;0.73;;;12.50;69.80;;;;;;4639649;30;20460;-85
2024/02/10 07:06:53;;;;;;;4.53;1.08;;;12.50;69.90;;;;;;4624226;30;20078;-83
2024/02/10 07:09:21;;;;;;;3.00;0.90;;;12.50;69.90;;;;;;4634861;30;20094;-84
2024/02/10 07:11:49;;;;;;;2.92;0.90;;;12.50;69.90;;;;;;4618452;30;20130;-84
2024/02/10 07:14:19;;;;;;;3.53;0.93;;;12.50;70.50;;;;;;4650125;30;20303;-79
2024/02/10 07:16:46;;;;;;;4.95;1.02;;;12.50;70.00;;;;;;4633033;30;20050;-79
2024/02/10 07:19:13;;;;;;;5.50;1.13;;;12.50;70.10;;;;;;4624586;30;20049;-80
2024/02/10 07:21:39;;;;;;;2.63;0.80;;;12.60;70.50;;;;;;4635654;30;20050;-80
2024/02/10 07:24:09;;;;;;;1.60;0.93;;;12.60;70.50;;;;;;4629980;30;20095;-80
2024/02/10 07:26:35;;;;;;;2.05;0.80;;;12.60;70.50;;;;;;4628725;30;20077;-80
2024/02/10 07:29:01;;;;;;;2.88;0.90;;;12.60;70.40;;;;;;4653325;30;20119;-79
2024/02/10 07:31:27;;;;;;;1.92;1.00;;;12.50;70.20;;;;;;4651580;30;20333;-80
2024/02/10 07:33:58;;;;;;;3.00;0.82;;;12.40;70.10;;;;;;4608353;31;20039;-80
2024/02/10 07:36:34;;;;;;;1.65;0.98;;;12.30;70.00;;;;;;4648483;30;20039;-84
2024/02/10 07:39:07;;;;;;;24.60;5.38;;;12.20;69.90;;;;;;4654047;30;20047;-82
2024/02/10 07:41:35;;;;;;;65.78;18.05;;;12.10;70.00;;;;;;4643893;30;20569;-83
2024/02/10 07:44:06;;;;;;;59.17;15.88;;;12.00;70.50;;;;;;4640514;30;20134;-81
2024/02/10 07:46:35;;;;;;;67.13;18.95;;;12.00;70.20;;;;;;4621038;30;20093;-81
2024/02/10 07:49:06;;;;;;;69.05;19.85;;;11.80;70.10;;;;;;4634385;30;20528;-80
2024/02/10 07:51:32;;;;;;;58.05;16.83;;;11.70;70.30;;;;;;4618714;30;20122;-79
2024/02/10 07:53:59;;;;;;;48.85;14.70;;;11.80;71.10;;;;;;4635001;30;20410;-80
2024/02/10 07:56:28;;;;;;;45.10;13.90;;;11.90;71.70;;;;;;4622777;30;20082;-78
2024/02/10 07:58:59;;;;;;;41.78;13.05;;;12.00;72.10;;;;;;4634897;30;20038;-78
2024/02/10 08:01:26;;;;;;;38.38;11.25;;;12.00;72.10;;;;;;4649191;30;20486;-81
2024/02/10 08:03:55;;;;;;;39.95;10.77;;;12.20;72.50;;;;;;4649135;30;20038;-81
2024/02/10 08:06:32;;;;;;;25.02;8.63;;;12.30;72.50;;;;;;4636837;30;20051;-79
2024/02/10 08:08:58;;;;;;;29.40;9.50;;;12.40;72.60;;;;;;4634414;30;20043;-78
2024/02/10 08:11:28;;;;;;;19.92;7.22;;;12.50;72.50;;;;;;4642104;30;20125;-78
2024/02/10 08:13:55;;;;;;;25.35;7.30;;;12.60;72.40;;;;;;4647466;30;20487;-85
2024/02/10 08:16:30;;;;;;;20.60;6.60;;;12.60;72.20;;;;;;4637457;30;20185;-84
2024/02/10 08:18:59;;;;;;;20.75;7.22;;;12.60;72.10;;;;;;4632046;30;20066;-85
2024/02/10 08:21:30;;;;;;;16.30;5.75;;;12.70;72.10;;;;;;4618817;30;20054;-85
2024/02/10 08:23:59;;;;;;;21.52;5.60;;;12.60;71.80;;;;;;4633334;30;20137;-82
2024/02/10 08:26:26;;;;;;;16.88;4.45;;;12.50;72.00;;;;;;4615366;30;20054;-84
2024/02/10 08:28:55;;;;;;;15.93;5.18;;;12.50;71.40;;;;;;4634105;30;20082;-84
2024/02/10 08:31:21;;;;;;;11.90;4.05;;;12.40;71.30;;;;;;4619048;30;20090;-85
2024/02/10 08:33:48;;;;;;;10.45;3.17;;;12.30;71.20;;;;;;4621081;30;20055;-87
2024/02/10 08:36:17;;;;;;;14.90;4.68;;;12.20;71.10;;;;;;4635744;30;20039;-87
2024/02/10 08:38:43;;;;;;;13.48;4.82;;;12.20;71.50;;;;;;4620790;30;20040;-84
2024/02/10 08:41:11;;;;;;;16.20;4.25;;;12.20;72.00;;;;;;4628316;30;20091;-83
2024/02/10 08:43:47;;;;;;;13.18;4.65;;;12.40;72.60;;;;;;4630968;30;20286;-84
2024/02/10 08:46:14;;;;;;;14.82;5.50;;;12.60;72.80;;;;;;4624633;30;20039;-81
2024/02/10 08:48:42;;;;;;;10.32;3.67;;;12.70;72.70;;;;;;4622223;30;20058;-81
2024/02/10 08:51:12;;;;;;;15.13;4.03;;;12.80;72.60;;;;;;4622582;30;20042;-80
2024/02/10 08:53:46;;;;;;;8.27;3.63;;;12.90;72.50;;;;;;4623806;30;20037;-82
2024/02/10 08:56:12;;;;;;;8.85;3.60;;;13.00;72.50;;;;;;4636833;30;20050;-82
2024/02/10 08:58:41;;;;;;;12.85;3.17;;;13.00;72.40;;;;;;4640691;30;20050;-82
2024/02/10 09:01:15;;;;;;;7.40;2.53;;;12.90;72.10;;;;;;4638822;30;20045;-80
2024/02/10 09:03:49;;;;;;;8.73;2.35;;;12.90;72.10;;;;;;4630369;30;20138;-80
2024/02/10 09:06:22;;;;;;;8.98;2.83;;;12.90;72.00;;;;;;4630853;30;20058;-80
2024/02/10 09:08:51;;;;;;;;;;;12.90;72.00;;;;;;4640560;30;20063;-79
2024/02/10 09:11:20;;;;;;;5.55;2.50;;;12.90;71.90;;;;;;4626938;30;19927;-80
2024/02/10 09:13:50;;;;;;;9.52;2.42;;;12.90;71.90;;;;;;4612158;30;20047;-82
2024/02/10 09:16:15;;;;;;;7.40;2.22;;;12.90;71.80;;;;;;4636393;30;20420;-81
2024/02/10 09:18:42;;;;;;;8.18;2.35;;;12.90;71.80;;;;;;4625832;30;20234;-79
2024/02/10 09:21:17;;;;;;;8.48;2.63;;;12.90;71.70;;;;;;4625415;30;20110;-81
2024/02/10 09:23:43;;;;;;;5.63;2.08;;;12.90;71.60;;;;;;4631477;30;20039;-82
2024/02/10 09:26:15;;;;;;;6.15;1.90;;;12.90;71.50;;;;;;4633819;30;20047;-78
2024/02/10 09:28:45;;;;;;;8.23;2.08;;;12.90;71.50;;;;;;4636894;30;20527;-80
2024/02/10 09:31:15;;;;;;;6.53;2.22;;;12.90;71.90;;;;;;4636422;30;20047;-79
2024/02/10 09:33:42;;;;;;;6.38;1.85;;;12.90;71.30;;;;;;4639224;30;20539;-82
2024/02/10 09:36:12;;;;;;;6.00;1.58;;;12.90;71.20;;;;;;4637276;30;20549;-81
2024/02/10 09:38:39;;;;;;;6.43;2.03;;;13.00;71.30;;;;;;4631229;30;20039;-80
2024/02/10 09:41:07;;;;;;;5.82;2.33;;;13.00;71.10;;;;;;4635320;30;20500;-81
2024/02/10 09:43:40;;;;;;;5.05;1.60;;;13.00;71.00;;;;;;4631136;30;20050;-80
2024/02/10 09:46:10;;;;;;;5.82;2.17;;;13.10;71.00;;;;;;4620442;30;20046;-80
2024/02/10 09:48:47;;;;;;;7.65;1.63;;;13.10;70.80;;;;;;4619966;30;20031;-80
2024/02/10 09:51:17;;;;;;;6.45;2.30;;;13.20;70.80;;;;;;4635566;30;20043;-80
2024/02/10 09:53:43;;;;;;;6.25;1.73;;;13.20;70.60;;;;;;4637734;30;20035;-79
2024/02/10 09:56:14;;;;;;;6.22;1.95;;;13.30;70.70;;;;;;4636704;30;20089;-80
2024/02/10 09:58:42;;;;;;;4.13;1.80;;;13.30;70.50;;;;;;4634682;30;20039;-80
2024/02/10 10:01:13;;;;;;;5.82;1.40;;;13.30;70.30;;;;;;4637944;30;20050;-83
2024/02/10 10:03:42;;;;;;;4.93;1.65;;;13.30;70.40;;;;;;4635867;30;20043;-85
2024/02/10 10:06:10;;;;;;;4.78;1.55;;;13.40;70.90;;;;;;4629263;30;20051;-81
2024/02/10 10:08:38;;;;;;;4.32;1.33;;;13.60;71.40;;;;;;4640099;30;20512;-83
2024/02/10 10:11:11;;;;;;;4.70;1.27;;;13.70;71.50;;;;;;4641132;30;20042;-82
2024/02/10 10:13:38;;;;;;;4.95;1.80;;;13.90;71.70;;;;;;4616766;30;20378;-85
2024/02/10 10:16:10;;;;;;;5.00;1.85;;;14.00;71.60;;;;;;4637606;30;20532;-84
2024/02/10 10:18:39;;;;;;;4.55;1.42;;;14.00;71.40;;;;;;4632549;30;20063;-84
2024/02/10 10:21:06;;;;;;;5.93;1.65;;;14.10;71.50;;;;;;4622503;30;20058;-85
2024/02/10 10:23:36;;;;;;;4.28;1.50;;;14.10;71.30;;;;;;4649097;30;20053;-85
2024/02/10 10:26:02;;;;;;;5.20;1.70;;;14.10;71.10;;;;;;4617376;30;20512;-84
2024/02/10 10:28:30;;;;;;;5.95;1.73;;;14.20;71.20;;;;;;4638385;30;20050;-83
2024/02/10 10:30:58;;;;;;;5.05;1.60;;;14.20;71.20;;;;;;4625982;30;20077;-84
2024/02/10 10:33:26;;;;;;;4.00;1.92;;;14.20;71.10;;;;;;4641492;30;20400;-83
2024/02/10 10:35:54;;;;;;;7.10;1.85;;;14.20;71.00;;;;;;4638294;30;20053;-83
2024/02/10 10:38:21;;;;;;;3.25;1.75;;;14.10;70.70;;;;;;4633793;30;20087;-83
2024/02/10 10:40:51;;;;;;;2.88;1.27;;;14.20;70.80;;;;;;4627383;30;20047;-82
2024/02/10 10:43:20;;;;;;;6.05;1.30;;;14.20;70.70;;;;;;4639812;30;20153;-82
2024/02/10 10:45:46;;;;;;;6.88;1.90;;;14.20;70.70;;;;;;4633762;30;20046;-81
2024/02/10 10:48:15;;;;;;;2.85;1.33;;;14.20;70.60;;;;;;4619249;30;20074;-82
2024/02/10 10:50:44;;;;;;;3.13;1.33;;;14.20;70.50;;;;;;4633577;30;20260;-82
2024/02/10 10:53:13;;;;;;;5.72;1.20;;;14.20;70.50;;;;;;4620918;30;20060;-81
2024/02/10 10:55:53;;;;;;;4.18;1.27;;;14.20;70.40;;;;;;4618901;30;20551;-81
2024/02/10 10:58:32;;;;;;;4.88;1.33;;;14.10;70.20;;;;;;4627634;30;20428;-82
2024/02/10 11:00:59;;;;;;;6.22;1.92;;;14.10;70.20;;;;;;4620484;30;20034;-81
2024/02/10 11:03:29;;;;;;;5.55;1.00;;;14.10;70.20;;;;;;4620777;30;20039;-82
2024/02/10 11:05:58;;;;;;;4.55;1.52;;;14.10;70.20;;;;;;4620781;30;20497;-81
2024/02/10 11:08:27;;;;;;;6.18;1.27;;;14.10;70.20;;;;;;4627257;30;20038;-81
2024/02/10 11:10:59;;;;;;;4.38;1.65;;;14.00;70.00;;;;;;4627298;30;20159;-81
2024/02/10 11:13:28;;;;;;;7.05;2.30;;;14.00;70.00;;;;;;4638278;30;20092;-81
2024/02/10 11:16:14;;;;;;;3.90;1.33;;;14.00;70.00;;;;;;4655486;30;20027;-80
2024/02/10 11:18:58;;;;;;;4.85;1.10;;;14.00;69.90;;;;;;4637804;30;20054;-81
2024/02/10 11:21:30;;;;;;;5.70;1.80;;;13.90;69.70;;;;;;4651162;30;20027;-82
2024/02/10 11:24:07;;;;;;;7.65;1.98;;;13.90;69.80;;;;;;4640822;30;20027;-80
2024/02/10 11:26:38;;;;;;;5.85;1.20;;;13.90;69.70;;;;;;4650642;30;20051;-81
2024/02/10 11:29:08;;;;;;;6.18;1.52;;;13.90;69.80;;;;;;4641847;30;20067;-85
2024/02/10 11:31:41;;;;;;;3.58;1.42;;;13.90;69.80;;;;;;4621986;30;20539;-84
2024/02/10 11:34:14;;;;;;;4.43;1.30;;;13.90;69.90;;;;;;4638012;30;20474;-86
2024/02/10 11:36:56;;;;;;;4.05;1.48;;;13.90;70.10;;;;;;4636922;30;20105;-87
2024/02/10 11:39:23;;;;;;;3.22;1.00;;;14.00;70.20;;;;;;4627171;30;20090;-88
2024/02/10 11:41:54;;;;;;;4.40;1.02;;;14.00;70.20;;;;;;4633584;30;20385;-86
2024/02/10 11:44:26;;;;;;;6.28;2.35;;;14.00;70.30;;;;;;4644415;30;20156;-81
2024/02/10 11:46:52;;;;;;;4.82;2.03;;;14.10;70.40;;;;;;4638693;30;20058;-85
2024/02/10 11:49:21;;;;;;;4.60;1.60;;;14.10;70.30;;;;;;4649159;30;20051;-84
2024/02/10 11:51:52;;;;;;;6.10;2.67;;;14.10;70.30;;;;;;4665711;30;20054;-83
2024/02/10 11:54:18;;;;;;;8.00;2.40;;;14.20;70.50;;;;;;4636930;30;20073;-83
2024/02/10 11:56:50;;;;;;;7.30;1.75;;;14.10;70.30;;;;;;4638548;30;20054;-83
2024/02/10 11:59:16;;;;;;;5.03;2.05;;;14.10;70.40;;;;;;4656340;30;20078;-83
2024/02/10 12:01:43;;;;;;;8.38;2.55;;;14.20;70.60;;;;;;4627677;30;20118;-84
2024/02/10 12:04:17;;;;;;;10.27;3.70;;;14.20;70.60;;;;;;4643555;30;20101;-83
2024/02/10 12:06:50;;;;;;;8.93;3.60;;;14.30;71.00;;;;;;4629137;30;20574;-87
2024/02/10 12:09:18;;;;;;;8.77;4.10;;;14.30;71.30;;;;;;4657689;30;20047;-85
2024/02/10 12:11:46;;;;;;;10.88;3.67;;;14.30;71.60;;;;;;4650068;30;20035;-85
2024/02/10 12:14:13;;;;;;;12.23;3.22;;;14.40;71.90;;;;;;4619664;30;20034;-86
2024/02/10 12:16:43;;;;;;;8.63;3.35;;;14.40;72.10;;;;;;4634960;30;20050;-84
2024/02/10 12:19:09;;;;;;;11.90;3.50;;;14.50;72.20;;;;;;4634956;30;20065;-87
2024/02/10 12:21:40;;;;;;;9.07;3.75;;;14.60;72.80;;;;;;4635359;30;20039;-87
2024/02/10 12:24:13;;;;;;;9.20;3.33;;;14.70;72.50;;;;;;4624679;30;20043;-85
2024/02/10 12:26:39;;;;;;;13.23;3.58;;;14.70;72.30;;;;;;4619286;30;20133;-84
2024/02/10 12:29:10;;;;;;;7.93;2.53;;;14.80;72.40;;;;;;4635000;30;21024;-84
2024/02/10 12:31:39;;;;;;;10.53;4.13;;;14.90;72.50;;;;;;4636259;30;20066;-82
2024/02/10 12:34:14;;;;;;;9.95;3.42;;;15.10;72.50;;;;;;4635791;30;20046;-85
2024/02/10 12:36:40;;;;;;;11.35;3.35;;;15.20;72.30;;;;;;4620669;30;20050;-85
2024/02/10 12:39:06;;;;;;;11.68;4.03;;;15.30;72.20;;;;;;4605936;30;20027;-83
2024/02/10 12:41:32;;;;;;;13.10;3.90;;;15.40;72.10;;;;;;4627474;30;20039;-84
2024/02/10 12:43:58;;;;;;;10.63;3.20;;;15.50;71.90;;;;;;4621373;30;20054;-86
2024/02/10 12:46:28;;;;;;;6.53;2.88;;;15.60;71.80;;;;;;4618535;30;20058;-86
2024/02/10 12:48:55;;;;;;;9.98;3.88;;;15.80;71.70;;;;;;4638244;30;20035;-83
2024/02/10 12:51:24;;;;;;;11.50;3.03;;;15.90;71.50;;;;;;4621441;30;20043;-84
2024/02/10 12:53:54;;;;;;;8.65;2.90;;;16.00;71.40;;;;;;4639214;30;20038;-83